Time;durP1;ratioP1;P1;durP2;ratioP2;P2;SDS_P1;SDS_P2;PMS_P1;PMS_P2;Temp;Humidity;BMP_temperature;BMP_pressure;BME280_temperature;BME280_humidity;BME280_pressure;Samples;Min_cycle;Max_cycle;Signal;HPM_P1;HPM_P2
2021/01/17 10:43:10;;;;;;;17.50;6.40;;;18.30;44.20;;;;;;4263441;27;21727;-69
2021/01/17 10:45:31;;;;;;;13.52;6.53;;;18.20;44.00;;;;;;4228956;27;20054;-67
2021/01/17 10:48:03;;;;;;;15.50;6.47;;;18.30;44.30;;;;;;4246244;27;20047;-68
2021/01/17 10:50:26;;;;;;;15.55;7.18;;;18.30;44.00;;;;;;4245619;27;20119;-66
2021/01/17 10:52:55;;;;;;;11.05;7.03;;;18.40;44.00;;;;;;4249040;27;20054;-75
2021/01/17 10:55:18;;;;;;;11.38;7.78;;;18.40;42.60;;;;;;4240516;27;20054;-65
2021/01/17 10:57:41;;;;;;;14.00;11.13;;;18.40;42.00;;;;;;4250553;27;20058;-69
2021/01/17 11:00:06;;;;;;;;;;;18.40;37.90;;;;;;4248604;27;20081;-63
2021/01/17 11:02:29;;;;;;;39.63;14.55;;;18.40;36.80;;;;;;4236797;27;20322;-65
2021/01/17 11:04:52;;;;;;;23.85;12.27;;;18.20;36.40;;;;;;4244279;27;20108;-63
2021/01/17 11:07:20;;;;;;;20.63;12.13;;;18.20;37.40;;;;;;4229667;27;20126;-62
2021/01/17 11:09:40;;;;;;;20.67;11.18;;;18.20;38.30;;;;;;4233495;27;20082;-64
2021/01/17 11:12:01;;;;;;;15.93;9.80;;;18.20;38.80;;;;;;4238229;27;20066;-64
2021/01/17 11:14:26;;;;;;;15.70;10.68;;;18.30;39.40;;;;;;4238837;28;20108;-64
2021/01/17 11:16:53;;;;;;;14.13;9.88;;;18.30;39.60;;;;;;4241874;28;20062;-65
2021/01/17 11:19:14;;;;;;;12.15;7.78;;;18.30;40.10;;;;;;4225971;28;20166;-66
2021/01/17 11:21:38;;;;;;;14.45;8.40;;;18.30;40.40;;;;;;4241991;28;20613;-63
2021/01/17 11:24:01;;;;;;;10.65;7.50;;;18.30;40.60;;;;;;4222718;28;20061;-67
2021/01/17 11:26:24;;;;;;;14.35;8.35;;;18.30;40.80;;;;;;4208185;28;20071;-62
2021/01/17 11:28:51;;;;;;;10.95;7.55;;;18.30;41.10;;;;;;4197135;28;20046;-65
2021/01/17 11:31:16;;;;;;;9.88;7.38;;;18.40;41.30;;;;;;4224790;28;20076;-64
2021/01/17 11:33:37;;;;;;;17.35;6.63;;;18.40;41.40;;;;;;4224581;28;20119;-67
2021/01/17 11:36:01;;;;;;;8.27;6.18;;;18.40;41.60;;;;;;4221232;28;20106;-66
2021/01/17 11:38:22;;;;;;;11.52;6.13;;;18.40;41.70;;;;;;4217984;28;20063;-69
2021/01/17 11:40:42;;;;;;;8.32;5.50;;;18.40;41.80;;;;;;4222950;28;20552;-66
2021/01/17 11:43:11;;;;;;;9.50;5.43;;;18.40;42.00;;;;;;4223654;28;20547;-62
2021/01/17 11:45:32;;;;;;;6.32;5.00;;;18.40;42.00;;;;;;4225690;28;20090;-61
2021/01/17 11:48:00;;;;;;;9.10;5.13;;;18.40;42.00;;;;;;4223576;28;20097;-66
2021/01/17 11:50:21;;;;;;;12.13;4.70;;;18.40;42.20;;;;;;4225771;28;20055;-68
2021/01/17 11:52:43;;;;;;;8.00;5.28;;;18.40;42.20;;;;;;4224045;28;20109;-63
2021/01/17 11:55:07;;;;;;;6.07;4.72;;;18.40;42.30;;;;;;4214178;28;20063;-67
2021/01/17 11:57:28;;;;;;;9.68;4.60;;;18.40;42.40;;;;;;4207539;28;20185;-66
2021/01/17 11:59:49;;;;;;;9.20;4.32;;;18.40;42.50;;;;;;4213836;28;20054;-65
2021/01/17 12:02:16;;;;;;;;;;;18.40;42.60;;;;;;4214293;28;20585;-67
2021/01/17 12:04:39;;;;;;;7.30;4.13;;;18.40;42.60;;;;;;4196561;28;20025;-69
2021/01/17 12:07:05;;;;;;;7.10;4.55;;;18.40;42.70;;;;;;4196267;28;20075;-68
2021/01/17 12:09:28;;;;;;;4.43;4.03;;;18.40;42.80;;;;;;4209744;28;20073;-77
2021/01/17 12:11:51;;;;;;;8.27;4.15;;;18.40;42.80;;;;;;4211621;28;20051;-74
2021/01/17 12:14:16;;;;;;;11.00;4.43;;;18.40;42.80;;;;;;4191835;28;20095;-67
2021/01/17 12:16:41;;;;;;;6.75;3.72;;;18.40;43.00;;;;;;4195640;28;20059;-69
2021/01/17 12:19:06;;;;;;;6.68;3.97;;;18.40;43.20;;;;;;4194740;28;20119;-67
2021/01/17 12:21:31;;;;;;;5.25;3.78;;;18.40;43.50;;;;;;4212862;28;20541;-66
2021/01/17 12:23:53;;;;;;;6.80;3.80;;;18.40;43.70;;;;;;4212669;28;20063;-64
2021/01/17 12:26:17;;;;;;;5.57;3.67;;;18.50;43.70;;;;;;4212936;28;20129;-64
2021/01/17 12:28:38;;;;;;;5.28;3.30;;;18.50;43.90;;;;;;4212887;28;20509;-64
2021/01/17 12:30:58;;;;;;;6.57;3.05;;;18.50;44.00;;;;;;4197666;28;20744;-66
2021/01/17 12:33:18;;;;;;;4.22;2.83;;;18.50;44.10;;;;;;4197948;28;20054;-66
2021/01/17 12:35:41;;;;;;;6.20;3.38;;;18.60;44.30;;;;;;4213439;28;20113;-64
2021/01/17 12:38:01;;;;;;;6.63;3.47;;;18.60;44.30;;;;;;4213162;28;20078;-65
2021/01/17 12:40:22;;;;;;;6.20;3.42;;;18.70;44.50;;;;;;4212889;28;20051;-66
2021/01/17 12:42:45;;;;;;;10.20;3.28;;;18.70;44.60;;;;;;4212453;28;20653;-69
2021/01/17 12:45:10;;;;;;;9.60;3.20;;;18.70;44.60;;;;;;4212815;28;20204;-65
2021/01/17 12:47:30;;;;;;;4.97;3.20;;;18.80;44.70;;;;;;4196600;28;20499;-69
2021/01/17 12:49:50;;;;;;;8.90;3.47;;;18.80;44.70;;;;;;4194563;28;20194;-66
2021/01/17 12:52:11;;;;;;;6.73;3.30;;;18.80;44.80;;;;;;4213633;28;20059;-68
2021/01/17 12:54:31;;;;;;;3.88;2.53;;;18.90;44.80;;;;;;4204084;28;20124;-66
2021/01/17 12:56:56;;;;;;;6.95;3.25;;;18.90;44.90;;;;;;4213883;28;20105;-64
2021/01/17 12:59:19;;;;;;;8.50;3.97;;;19.00;45.10;;;;;;4205812;28;20067;-64
2021/01/17 13:01:42;;;;;;;8.75;3.10;;;19.00;45.00;;;;;;4209669;28;20113;-67
2021/01/17 13:04:03;;;;;;;12.30;3.67;;;19.10;45.10;;;;;;4212656;28;20062;-66
2021/01/17 13:06:23;;;;;;;3.75;3.00;;;19.10;44.90;;;;;;4212161;28;20447;-67
2021/01/17 13:08:47;;;;;;;6.10;3.17;;;19.10;44.80;;;;;;4212892;28;20078;-71
2021/01/17 13:11:09;;;;;;;4.65;3.88;;;19.20;44.90;;;;;;4196712;28;20055;-64
2021/01/17 13:13:31;;;;;;;5.70;3.17;;;19.20;44.60;;;;;;4182338;28;20056;-64
2021/01/17 13:15:55;;;;;;;5.70;3.83;;;19.20;44.40;;;;;;4208517;28;20229;-73
2021/01/17 13:18:16;;;;;;;5.20;3.33;;;19.30;44.30;;;;;;4212355;28;20054;-71
2021/01/17 13:20:36;;;;;;;;;;;19.30;44.40;;;;;;4213184;28;20046;-63
2021/01/17 13:22:57;;;;;;;6.00;3.22;;;19.40;44.40;;;;;;4211797;28;19935;-62
2021/01/17 13:25:19;;;;;;;6.00;3.25;;;19.30;44.60;;;;;;4209888;28;20051;-62
2021/01/17 13:27:39;;;;;;;5.70;3.28;;;19.40;44.60;;;;;;4212566;28;20059;-62
2021/01/17 13:30:01;;;;;;;3.85;3.20;;;19.40;44.50;;;;;;4207328;28;20101;-63
2021/01/17 13:32:24;;;;;;;5.25;3.47;;;19.40;44.40;;;;;;4210706;28;20097;-61
2021/01/17 13:34:47;;;;;;;4.03;3.15;;;19.40;44.40;;;;;;4208187;28;20115;-60
2021/01/17 13:37:10;;;;;;;5.70;3.42;;;19.50;44.40;;;;;;4179342;28;20084;-61
2021/01/17 13:39:33;;;;;;;4.07;2.78;;;19.50;44.40;;;;;;4202595;28;20081;-69
2021/01/17 13:41:54;;;;;;;4.88;3.22;;;19.50;44.30;;;;;;4219142;28;20054;-69
2021/01/17 13:44:16;;;;;;;6.95;3.80;;;19.60;44.20;;;;;;4211799;28;20059;-68
2021/01/17 13:46:38;;;;;;;4.93;3.20;;;19.60;44.00;;;;;;4191362;28;20127;-68
2021/01/17 13:49:01;;;;;;;4.25;3.50;;;19.60;43.60;;;;;;4210728;28;20082;-66
2021/01/17 13:51:24;;;;;;;6.55;3.05;;;19.60;43.50;;;;;;4218230;28;20068;-67
2021/01/17 13:53:45;;;;;;;4.65;2.95;;;19.70;43.60;;;;;;4218903;28;20051;-64
2021/01/17 13:56:06;;;;;;;4.20;2.78;;;19.70;43.60;;;;;;4219320;28;20485;-65
2021/01/17 13:58:26;;;;;;;3.72;2.92;;;19.70;43.60;;;;;;4216201;28;20126;-66
2021/01/17 14:00:47;;;;;;;4.93;2.57;;;19.70;43.60;;;;;;4204749;28;20974;-67
2021/01/17 14:03:08;;;;;;;3.50;2.70;;;19.80;43.70;;;;;;4195482;28;20055;-63
2021/01/17 14:05:31;;;;;;;4.10;2.70;;;19.80;43.80;;;;;;4210762;28;20050;-63
2021/01/17 14:07:53;;;;;;;3.55;2.70;;;19.80;43.70;;;;;;4211751;28;20054;-62
2021/01/17 14:10:16;;;;;;;4.22;2.90;;;19.90;43.80;;;;;;4211287;28;20421;-68
2021/01/17 14:12:42;;;;;;;4.30;2.70;;;19.90;43.80;;;;;;4209884;28;20185;-67
2021/01/17 14:15:08;;;;;;;4.85;3.00;;;19.90;43.90;;;;;;4210036;28;20113;-64
2021/01/17 14:17:28;;;;;;;4.45;2.65;;;20.00;44.00;;;;;;4207848;28;20109;-65
2021/01/17 14:19:49;;;;;;;5.95;3.10;;;19.90;44.60;;;;;;4211619;28;20098;-67
2021/01/17 14:22:13;;;;;;;8.50;2.50;;;20.00;44.00;;;;;;4199289;28;20059;-67
2021/01/17 14:24:33;;;;;;;4.10;2.83;;;20.00;43.90;;;;;;4211031;28;20066;-67
2021/01/17 14:26:53;;;;;;;3.60;2.45;;;20.00;43.80;;;;;;4201439;28;20055;-67
2021/01/17 14:29:15;;;;;;;3.30;3.00;;;20.00;43.70;;;;;;4195120;28;20474;-69
2021/01/17 14:31:41;;;;;;;2.83;2.33;;;20.10;43.60;;;;;;4200638;28;20128;-69
2021/01/17 14:34:04;;;;;;;3.40;2.63;;;20.10;44.10;;;;;;4212281;28;20071;-64
2021/01/17 14:36:31;;;;;;;3.08;2.72;;;20.10;43.50;;;;;;4212062;28;20556;-67
2021/01/17 14:38:51;;;;;;;3.70;2.67;;;20.20;43.40;;;;;;4195427;28;20063;-68
2021/01/17 14:41:11;;;;;;;5.38;3.15;;;20.20;43.30;;;;;;4179842;28;20060;-67
2021/01/17 14:43:34;;;;;;;2.80;2.60;;;20.20;43.20;;;;;;4195657;28;20130;-67
2021/01/17 14:45:57;;;;;;;3.55;2.55;;;20.20;43.10;;;;;;4180465;28;20136;-68
2021/01/17 14:48:20;;;;;;;4.03;2.50;;;20.20;43.60;;;;;;4195744;28;20110;-69
2021/01/17 14:50:43;;;;;;;2.67;2.45;;;20.30;43.00;;;;;;4195573;28;20121;-68
2021/01/17 14:53:06;;;;;;;3.58;2.50;;;20.30;43.00;;;;;;4194917;28;20054;-67
2021/01/17 14:55:26;;;;;;;;;;;20.40;42.90;;;;;;4195834;28;20427;-67
2021/01/17 14:57:50;;;;;;;3.10;2.22;;;20.30;43.70;;;;;;4195427;28;19973;-67
2021/01/17 15:00:11;;;;;;;;;;;20.30;42.90;;;;;;4180605;28;20059;-67
2021/01/17 15:02:32;;;;;;;4.53;2.72;;;20.30;43.10;;;;;;4194906;28;19931;-66
2021/01/17 15:04:54;;;;;;;2.63;2.33;;;20.30;42.90;;;;;;4203781;28;20073;-66
2021/01/17 15:07:15;;;;;;;3.45;2.67;;;20.40;42.90;;;;;;4212276;28;20105;-67
2021/01/17 15:09:35;;;;;;;4.72;2.45;;;20.40;42.90;;;;;;4212128;28;20063;-67
2021/01/17 15:11:56;;;;;;;2.50;2.30;;;20.40;42.80;;;;;;4212255;28;20513;-65
2021/01/17 15:14:16;;;;;;;4.18;2.70;;;20.50;42.80;;;;;;4211864;28;20101;-66
2021/01/17 15:16:39;;;;;;;3.97;2.45;;;20.50;43.20;;;;;;4211980;28;20063;-68
2021/01/17 15:19:02;;;;;;;5.32;2.80;;;20.60;43.70;;;;;;4211986;28;20133;-65
2021/01/17 15:21:27;;;;;;;5.97;2.50;;;20.60;43.70;;;;;;4211835;28;20594;-65
2021/01/17 15:23:48;;;;;;;4.68;3.00;;;20.70;43.90;;;;;;4196518;28;20142;-65
2021/01/17 15:26:10;;;;;;;9.13;2.85;;;20.60;43.90;;;;;;4211919;28;20143;-66
2021/01/17 15:28:31;;;;;;;6.10;2.70;;;20.70;44.20;;;;;;4197611;28;20538;-65
2021/01/17 15:30:54;;;;;;;4.90;2.72;;;20.80;44.50;;;;;;4215342;28;20136;-64
2021/01/17 15:33:19;;;;;;;3.83;2.70;;;20.80;44.50;;;;;;4215538;28;20113;-64
2021/01/17 15:35:42;;;;;;;5.88;2.95;;;20.90;44.60;;;;;;4199999;28;20550;-65
2021/01/17 15:38:03;;;;;;;5.20;2.78;;;20.90;44.80;;;;;;4214312;28;20070;-67
2021/01/17 15:40:26;;;;;;;9.73;3.00;;;20.90;45.30;;;;;;4215167;28;20059;-70
2021/01/17 15:42:50;;;;;;;6.10;3.10;;;20.90;46.10;;;;;;4214805;28;20457;-68
2021/01/17 15:45:12;;;;;;;12.73;3.42;;;21.00;45.40;;;;;;4214981;28;20454;-66
2021/01/17 15:47:32;;;;;;;10.95;3.20;;;21.00;45.40;;;;;;4208499;28;20077;-67
2021/01/17 15:49:55;;;;;;;7.60;2.85;;;21.10;45.10;;;;;;4197846;28;20502;-67
2021/01/17 15:52:17;;;;;;;6.82;2.80;;;21.10;44.80;;;;;;4199030;28;20143;-68
2021/01/17 15:54:40;;;;;;;6.80;3.33;;;21.10;45.00;;;;;;4214782;28;20112;-66
2021/01/17 15:57:01;;;;;;;7.32;3.38;;;21.20;45.40;;;;;;4214669;28;20095;-65
2021/01/17 15:59:22;;;;;;;9.40;3.03;;;21.20;45.20;;;;;;4198443;28;20143;-64
2021/01/17 16:01:45;;;;;;;10.23;3.53;;;21.20;45.10;;;;;;4213771;28;20055;-64
2021/01/17 16:04:05;;;;;;;9.05;3.10;;;21.20;45.60;;;;;;4214578;28;20059;-65
2021/01/17 16:06:37;;;;;;;7.28;2.92;;;21.30;45.70;;;;;;4214642;28;20144;-67
2021/01/17 16:08:57;;;;;;;11.57;2.88;;;21.30;46.00;;;;;;4214329;28;20132;-63
2021/01/17 16:11:28;;;;;;;7.25;2.83;;;21.30;45.00;;;;;;4214109;28;20113;-67
2021/01/17 16:13:51;;;;;;;9.80;3.00;;;21.40;44.80;;;;;;4196740;28;20487;-68
2021/01/17 16:16:15;;;;;;;6.50;2.92;;;21.40;44.50;;;;;;4217650;28;20062;-64
2021/01/17 16:18:38;;;;;;;5.80;2.83;;;21.40;44.50;;;;;;4220604;28;20050;-64
2021/01/17 16:21:00;;;;;;;8.20;3.35;;;21.40;44.30;;;;;;4221099;28;20062;-65
2021/01/17 16:23:25;;;;;;;6.57;3.00;;;21.40;44.20;;;;;;4220940;28;20058;-69
2021/01/17 16:25:45;;;;;;;7.15;2.67;;;21.40;44.20;;;;;;4221685;28;20058;-65
2021/01/17 16:28:09;;;;;;;6.25;4.45;;;21.40;44.10;;;;;;4225958;28;20409;-67
2021/01/17 16:30:31;;;;;;;8.13;7.30;;;21.40;39.50;;;;;;4215898;28;20050;-73
2021/01/17 16:32:52;;;;;;;18.25;15.90;;;21.40;36.60;;;;;;4213834;28;20528;-72
2021/01/17 16:35:16;;;;;;;18.50;16.60;;;21.20;31.90;;;;;;4220718;28;20078;-78
2021/01/17 16:37:36;;;;;;;14.48;13.07;;;21.00;31.00;;;;;;4208925;28;20624;-72
2021/01/17 16:39:56;;;;;;;12.03;10.87;;;20.80;34.00;;;;;;4203536;28;20063;-67
2021/01/17 16:42:17;;;;;;;11.32;10.10;;;20.80;36.90;;;;;;4218411;28;20296;-68
2021/01/17 16:44:41;;;;;;;11.45;8.60;;;20.80;37.20;;;;;;4198198;28;20553;-74
2021/01/17 16:47:01;;;;;;;15.05;8.40;;;20.80;37.40;;;;;;4203746;28;20135;-73
2021/01/17 16:49:23;;;;;;;10.73;7.77;;;20.90;37.70;;;;;;4219415;28;20053;-75
2021/01/17 16:51:46;;;;;;;8.98;7.22;;;21.00;38.00;;;;;;4218431;28;20083;-75
2021/01/17 16:54:11;;;;;;;6.63;5.72;;;21.00;38.30;;;;;;4222239;28;20066;-75
2021/01/17 16:56:34;;;;;;;8.77;6.53;;;21.00;38.50;;;;;;4221158;28;20539;-72
2021/01/17 16:58:57;;;;;;;6.00;5.43;;;21.10;38.80;;;;;;4218560;28;20050;-69
2021/01/17 17:01:20;;;;;;;7.55;5.85;;;21.10;38.90;;;;;;4218875;28;20054;-69
2021/01/17 17:03:43;;;;;;;6.78;5.88;;;21.10;39.10;;;;;;4221019;28;20109;-73
2021/01/17 17:06:05;;;;;;;7.38;4.72;;;21.20;39.30;;;;;;4219224;28;20517;-72
2021/01/17 17:08:25;;;;;;;7.35;5.07;;;21.20;39.50;;;;;;4198474;28;20148;-62
2021/01/17 17:10:48;;;;;;;9.52;4.60;;;21.20;39.60;;;;;;4213484;28;20050;-63
2021/01/17 17:13:08;;;;;;;7.30;4.47;;;21.30;40.30;;;;;;4213114;28;20560;-73
2021/01/17 17:15:31;;;;;;;6.60;4.82;;;21.30;40.60;;;;;;4181525;28;20063;-68
2021/01/17 17:17:52;;;;;;;7.70;4.33;;;21.30;40.50;;;;;;4211392;28;20109;-70
2021/01/17 17:20:15;;;;;;;5.05;4.28;;;21.40;41.00;;;;;;4218645;28;20054;-64
2021/01/17 17:22:39;;;;;;;6.72;4.28;;;21.40;40.80;;;;;;4203934;28;20504;-67
2021/01/17 17:25:00;;;;;;;7.90;3.80;;;21.40;41.00;;;;;;4219846;28;20061;-69
2021/01/17 17:27:23;;;;;;;5.03;3.70;;;21.40;40.90;;;;;;4220331;28;20059;-68
2021/01/17 17:29:43;;;;;;;4.55;3.65;;;21.40;40.80;;;;;;4219963;28;20807;-65
2021/01/17 17:32:04;;;;;;;5.70;3.60;;;21.50;41.00;;;;;;4218102;28;20058;-72
2021/01/17 17:34:25;;;;;;;4.75;3.60;;;21.50;41.20;;;;;;4204627;28;20139;-64
2021/01/17 17:36:46;;;;;;;5.00;3.88;;;21.50;41.10;;;;;;4208464;28;20059;-64
2021/01/17 17:39:09;;;;;;;6.47;3.50;;;21.50;41.20;;;;;;4211345;28;20601;-65
2021/01/17 17:41:32;;;;;;;6.95;3.60;;;21.50;41.10;;;;;;4211413;28;20076;-63
2021/01/17 17:43:52;;;;;;;7.00;3.85;;;21.60;41.20;;;;;;4212145;28;20199;-66
2021/01/17 17:46:13;;;;;;;5.43;3.80;;;21.60;41.20;;;;;;4212183;28;21380;-66
2021/01/17 17:48:36;;;;;;;6.07;3.72;;;21.60;41.20;;;;;;4199838;28;20189;-66
2021/01/17 17:50:59;;;;;;;4.50;4.00;;;21.60;41.20;;;;;;4209344;28;20131;-68
2021/01/17 17:53:22;;;;;;;5.90;3.78;;;21.60;41.20;;;;;;4194269;28;20071;-66
2021/01/17 17:55:46;;;;;;;5.75;3.58;;;21.60;41.20;;;;;;4211654;28;20147;-64
2021/01/17 17:58:07;;;;;;;5.43;3.00;;;21.70;41.30;;;;;;4210955;28;20096;-63
2021/01/17 18:00:27;;;;;;;5.17;3.73;;;21.70;41.40;;;;;;4195719;28;20908;-65
2021/01/17 18:02:50;;;;;;;5.32;4.00;;;21.70;41.40;;;;;;4211306;28;20055;-64
2021/01/17 18:05:12;;;;;;;3.67;3.33;;;21.70;41.30;;;;;;4207118;28;20101;-70
2021/01/17 18:07:32;;;;;;;6.05;3.88;;;21.80;41.50;;;;;;4195516;28;20064;-65
2021/01/17 18:09:52;;;;;;;7.32;3.53;;;21.80;41.70;;;;;;4196993;28;20541;-66
2021/01/17 18:12:13;;;;;;;6.47;3.40;;;21.80;41.60;;;;;;4211936;28;20135;-66
2021/01/17 18:14:36;;;;;;;4.63;3.47;;;21.80;41.40;;;;;;4212165;28;20059;-66
2021/01/17 18:16:56;;;;;;;4.65;2.95;;;21.80;41.30;;;;;;4211981;28;20062;-66
2021/01/17 18:19:16;;;;;;;5.93;3.97;;;21.80;41.20;;;;;;4212255;28;20482;-62
2021/01/17 18:21:38;;;;;;;4.33;3.03;;;21.80;41.10;;;;;;4211765;28;20058;-65
2021/01/17 18:24:00;;;;;;;3.47;3.17;;;21.80;41.00;;;;;;4203269;28;20129;-66
2021/01/17 18:26:23;;;;;;;3.72;3.03;;;21.80;40.90;;;;;;4209177;28;20792;-65
2021/01/17 18:28:47;;;;;;;4.80;3.25;;;21.80;41.00;;;;;;4215346;28;20058;-62
2021/01/17 18:31:07;;;;;;;3.53;3.22;;;21.90;41.50;;;;;;4195572;28;20110;-69
2021/01/17 18:33:28;;;;;;;3.72;3.30;;;21.90;41.10;;;;;;4192879;28;20155;-68
2021/01/17 18:35:50;;;;;;;4.70;2.70;;;21.90;41.10;;;;;;4208652;28;20104;-66
2021/01/17 18:38:13;;;;;;;4.03;2.75;;;21.90;41.10;;;;;;4193130;28;20679;-68
2021/01/17 18:40:34;;;;;;;4.63;3.28;;;21.90;41.10;;;;;;4208935;28;20059;-68
2021/01/17 18:42:56;;;;;;;5.15;3.38;;;21.90;41.10;;;;;;4210787;28;20533;-64
2021/01/17 18:45:21;;;;;;;3.42;3.13;;;21.90;41.20;;;;;;4194226;28;20068;-62
2021/01/17 18:47:41;;;;;;;3.45;3.05;;;21.90;41.10;;;;;;4209778;28;20059;-66
2021/01/17 18:50:03;;;;;;;4.38;2.60;;;21.90;41.10;;;;;;4208360;28;20109;-64
2021/01/17 18:52:29;;;;;;;5.65;3.15;;;21.90;41.70;;;;;;4209435;28;20543;-67
2021/01/17 18:54:52;;;;;;;4.05;3.15;;;21.90;41.10;;;;;;4210308;28;20403;-69
2021/01/17 18:57:15;;;;;;;4.40;3.00;;;22.00;41.30;;;;;;4207781;28;20578;-68
2021/01/17 18:59:39;;;;;;;4.10;2.85;;;21.90;41.20;;;;;;4207939;28;20155;-70
2021/01/17 19:02:03;;;;;;;3.50;2.95;;;22.00;41.20;;;;;;4208898;28;20071;-71
2021/01/17 19:04:23;;;;;;;2.90;2.70;;;22.00;41.40;;;;;;4195199;28;20098;-72
2021/01/17 19:06:49;;;;;;;3.92;3.38;;;22.00;41.30;;;;;;4212705;28;20472;-72
2021/01/17 19:09:09;;;;;;;4.25;2.92;;;22.00;41.20;;;;;;4213927;28;20055;-75
2021/01/17 19:11:32;;;;;;;4.47;3.05;;;22.00;41.10;;;;;;4213714;28;20058;-70
2021/01/17 19:13:52;;;;;;;5.20;3.10;;;22.00;41.00;;;;;;4196843;28;20411;-70
2021/01/17 19:16:16;;;;;;;9.18;3.30;;;22.00;41.20;;;;;;4211980;28;20071;-69
2021/01/17 19:18:40;;;;;;;8.18;3.00;;;22.00;41.00;;;;;;4212878;28;20574;-73
2021/01/17 19:21:07;;;;;;;20.05;17.17;;;22.00;41.00;;;;;;4212968;28;20059;-67
2021/01/17 19:23:30;;;;;;;22.35;20.15;;;22.00;33.40;;;;;;4212932;28;20046;-66
2021/01/17 19:25:50;;;;;;;23.90;21.40;;;21.70;31.30;;;;;;4199766;28;20655;-67
2021/01/17 19:28:11;;;;;;;24.83;22.33;;;21.50;30.40;;;;;;4213675;28;20067;-66
2021/01/17 19:30:31;;;;;;;25.67;23.05;;;21.30;30.20;;;;;;4215520;28;20113;-66
2021/01/17 19:32:51;;;;;;;24.20;21.80;;;21.10;30.20;;;;;;4215262;28;20557;-66
2021/01/17 19:35:15;;;;;;;25.23;22.63;;;20.90;29.90;;;;;;4214524;28;20419;-67
2021/01/17 19:37:40;;;;;;;20.02;17.50;;;20.70;30.10;;;;;;4215472;28;20067;-71
2021/01/17 19:40:01;;;;;;;13.93;12.27;;;20.50;32.50;;;;;;4199705;28;20143;-67
2021/01/17 19:42:24;;;;;;;14.88;13.02;;;20.50;34.80;;;;;;4215248;28;20066;-69
2021/01/17 19:44:47;;;;;;;14.27;11.20;;;20.50;35.50;;;;;;4214584;28;20225;-68
2021/01/17 19:47:07;;;;;;;11.07;9.40;;;20.60;36.00;;;;;;4215686;28;20063;-67
2021/01/17 19:49:30;;;;;;;10.68;8.40;;;20.60;36.50;;;;;;4214748;28;20062;-69
